Time;durP1;ratioP1;P1;durP2;ratioP2;P2;SDS_P1;SDS_P2;PMS_P1;PMS_P2;Temp;Humidity;BMP_temperature;BMP_pressure;BME280_temperature;BME280_humidity;BME280_pressure;Samples;Min_cycle;Max_cycle;Signal;HPM_P1;HPM_P2
2021/07/14 00:00:33;;;;;;;536.10;476.83;;;;;;;;;;4950847;29;20682;-75
2021/07/14 00:03:05;;;;;;;536.05;477.33;;;;;;;;;;4934443;29;20028;-75
2021/07/14 00:05:34;;;;;;;529.00;470.63;;;;;;;;;;4935971;28;20774;-76
2021/07/14 00:08:00;;;;;;;528.72;469.95;;;;;;;;;;4927923;29;20067;-74
2021/07/14 00:10:28;;;;;;;524.83;464.75;;;;;;;;;;4948771;29;20042;-75
2021/07/14 00:13:31;;;;;;;540.30;473.20;;;;;;;;;;4951279;29;20079;-75
2021/07/14 00:24:04;;;;;;;527.70;469.27;;;;;;;;;;4949624;29;20054;-74
2021/07/14 00:26:31;;;;;;;528.40;469.52;;;;;;;;;;4941122;29;20020;-74
2021/07/14 00:28:58;;;;;;;524.55;465.52;;;;;;;;;;4938101;29;20035;-74
2021/07/14 00:31:25;;;;;;;527.20;468.95;;;;;;;;;;4950315;29;20019;-74
2021/07/14 00:33:51;;;;;;;530.53;469.35;;;;;;;;;;4937854;29;20065;-74
2021/07/14 00:36:17;;;;;;;526.42;467.70;;;;;;;;;;4954432;29;20020;-74
2021/07/14 00:38:43;;;;;;;529.75;471.15;;;;;;;;;;4937952;29;20023;-74
2021/07/14 00:41:09;;;;;;;528.92;470.45;;;;;;;;;;4933618;29;20114;-75
2021/07/14 00:43:35;;;;;;;531.85;473.35;;;;;;;;;;4927579;29;20028;-74
2021/07/14 00:46:28;;;;;;;530.38;471.67;;;;;;;;;;4949114;29;20169;-75
2021/07/14 00:48:56;;;;;;;525.35;465.17;;;;;;;;;;4950158;29;20039;-74
2021/07/14 00:51:22;;;;;;;526.85;468.13;;;;;;;;;;4936545;29;20027;-75
2021/07/14 00:53:48;;;;;;;531.25;472.55;;;;;;;;;;4935062;29;20046;-74
2021/07/14 00:56:14;;;;;;;526.88;466.73;;;;;;;;;;4935720;29;20031;-75
2021/07/14 00:58:40;;;;;;;523.67;462.83;;;;;;;;;;4935374;29;20034;-74
2021/07/14 01:01:06;;;;;;;536.53;473.05;;;;;;;;;;4935799;29;20086;-75
2021/07/14 01:03:36;;;;;;;524.03;463.67;;;;;;;;;;4952376;29;20043;-74
2021/07/14 01:06:04;;;;;;;524.65;464.58;;;;;;;;;;4954652;29;20771;-75
2021/07/14 01:08:38;;;;;;;523.00;458.52;;;;;;;;;;4950155;29;20043;-74
2021/07/14 01:11:07;;;;;;;527.58;467.95;;;;;;;;;;4945006;29;20216;-75
2021/07/14 01:13:37;;;;;;;529.38;470.70;;;;;;;;;;4935593;29;20043;-75
2021/07/14 01:16:05;;;;;;;523.65;459.85;;;;;;;;;;4929350;29;20536;-75
2021/07/14 01:18:33;;;;;;;1999.90;763.85;;;;;;;;;;4934617;28;20171;-75
2021/07/14 01:21:02;;;;;;;620.75;465.55;;;;;;;;;;4926107;29;20090;-74
2021/07/14 01:23:39;;;;;;;560.78;500.33;;;;;;;;;;4933332;29;20031;-75
2021/07/14 01:26:07;;;;;;;527.33;467.27;;;;;;;;;;4933502;29;20693;-75
2021/07/14 01:28:35;;;;;;;1182.20;526.70;;;;;;;;;;4951712;29;20035;-74
2021/07/14 01:31:01;;;;;;;531.50;470.40;;;;;;;;;;4934010;29;20031;-74
2021/07/14 01:33:29;;;;;;;531.08;472.27;;;;;;;;;;4930919;29;20039;-76
2021/07/14 01:35:56;;;;;;;526.28;466.75;;;;;;;;;;4935188;29;20023;-75
2021/07/14 01:38:23;;;;;;;526.88;468.25;;;;;;;;;;4950941;29;20480;-75
2021/07/14 01:40:49;;;;;;;529.38;470.85;;;;;;;;;;4931951;29;20027;-75
2021/07/14 01:43:15;;;;;;;532.25;472.60;;;;;;;;;;4934090;29;20458;-74
2021/07/14 01:45:43;;;;;;;524.38;461.65;;;;;;;;;;4949417;29;20081;-75
2021/07/14 01:48:10;;;;;;;525.78;465.73;;;;;;;;;;4934187;29;20145;-74
2021/07/14 01:50:36;;;;;;;527.25;467.52;;;;;;;;;;4930256;29;20290;-76
2021/07/14 01:53:03;;;;;;;763.97;549.17;;;;;;;;;;4940336;29;20032;-76
2021/07/14 01:55:30;;;;;;;1999.90;999.90;;;;;;;;;;4950729;29;20024;-75
2021/07/14 01:57:57;;;;;;;1999.90;999.90;;;;;;;;;;4949816;29;20027;-75
2021/07/14 02:00:23;;;;;;;1752.38;940.42;;;;;;;;;;4934641;29;20498;-73
2021/07/14 02:03:01;;;;;;;1999.90;999.90;;;;;;;;;;4934158;29;20074;-75
2021/07/14 02:05:27;;;;;;;545.70;485.65;;;;;;;;;;4934148;29;20495;-74
2021/07/14 02:07:53;;;;;;;612.67;517.20;;;;;;;;;;4948830;29;20106;-74
2021/07/14 02:10:19;;;;;;;522.72;451.40;;;;;;;;;;4934458;29;20460;-75
2021/07/14 02:12:47;;;;;;;528.42;464.50;;;;;;;;;;4948098;29;20043;-75
2021/07/14 02:15:13;;;;;;;525.58;463.38;;;;;;;;;;4949151;29;20027;-75
2021/07/14 02:17:45;;;;;;;522.72;456.98;;;;;;;;;;4949717;29;20050;-74
2021/07/14 02:20:21;;;;;;;524.47;459.30;;;;;;;;;;4951572;29;20032;-75
2021/07/14 02:22:47;;;;;;;528.17;463.75;;;;;;;;;;4929247;29;20122;-76
2021/07/14 02:25:13;;;;;;;525.28;464.95;;;;;;;;;;4948853;29;20035;-75
2021/07/14 02:27:40;;;;;;;521.40;453.63;;;;;;;;;;4950524;29;20039;-76
2021/07/14 02:30:16;;;;;;;531.00;462.73;;;;;;;;;;4930752;29;20058;-76
2021/07/14 02:32:42;;;;;;;525.42;457.45;;;;;;;;;;4930536;29;20023;-74
2021/07/14 02:35:09;;;;;;;524.60;458.92;;;;;;;;;;4951018;29;20024;-74
2021/07/14 02:37:39;;;;;;;524.53;462.90;;;;;;;;;;4945396;29;20463;-74
2021/07/14 02:40:06;;;;;;;524.15;454.38;;;;;;;;;;4933183;29;20751;-75
2021/07/14 02:42:33;;;;;;;523.53;455.50;;;;;;;;;;4946503;28;20055;-76
2021/07/14 02:45:00;;;;;;;523.30;457.85;;;;;;;;;;4930997;29;20096;-74
2021/07/14 02:47:27;;;;;;;381.70;324.40;;;;;;;;;;4933998;29;20125;-76
2021/07/14 02:49:53;;;;;;;521.30;450.02;;;;;;;;;;4951168;29;20039;-74
2021/07/14 02:52:24;;;;;;;1569.10;839.92;;;;;;;;;;4949894;28;20168;-75
2021/07/14 02:54:51;;;;;;;521.20;448.23;;;;;;;;;;4932919;29;20392;-76
2021/07/14 02:57:19;;;;;;;521.53;453.55;;;;;;;;;;4943785;29;20039;-76
2021/07/14 02:59:46;;;;;;;526.95;456.17;;;;;;;;;;4930530;29;20034;-73
2021/07/14 03:02:14;;;;;;;523.33;450.83;;;;;;;;;;4936460;29;20019;-74
2021/07/14 03:04:42;;;;;;;520.97;452.17;;;;;;;;;;4930042;29;20035;-74
2021/07/14 03:07:08;;;;;;;529.58;460.48;;;;;;;;;;4931959;29;20510;-75
2021/07/14 03:09:38;;;;;;;524.20;455.55;;;;;;;;;;4947194;29;20035;-74
2021/07/14 03:12:07;;;;;;;523.07;451.83;;;;;;;;;;4931599;29;20027;-78
2021/07/14 03:14:35;;;;;;;527.67;458.98;;;;;;;;;;4947440;29;20324;-75
2021/07/14 03:17:01;;;;;;;530.70;461.77;;;;;;;;;;4933105;29;20030;-74
2021/07/14 03:19:28;;;;;;;534.65;469.63;;;;;;;;;;4930329;29;20023;-75
2021/07/14 03:21:54;;;;;;;522.35;447.77;;;;;;;;;;4950605;28;20066;-76
2021/07/14 03:24:20;;;;;;;522.95;455.33;;;;;;;;;;4946484;29;20119;-74
2021/07/14 03:26:47;;;;;;;522.08;447.92;;;;;;;;;;4932444;29;20579;-75
2021/07/14 03:29:14;;;;;;;546.03;475.48;;;;;;;;;;4946442;29;20511;-74
2021/07/14 03:31:40;;;;;;;626.35;466.65;;;;;;;;;;4949400;29;20094;-75
2021/07/14 03:34:08;;;;;;;518.63;445.70;;;;;;;;;;4949356;29;20055;-75
2021/07/14 03:36:34;;;;;;;1378.35;576.55;;;;;;;;;;4932178;29;20031;-75
2021/07/14 03:39:01;;;;;;;528.15;461.20;;;;;;;;;;4947054;29;20499;-73
2021/07/14 03:41:27;;;;;;;521.10;452.85;;;;;;;;;;4933172;29;20043;-75
2021/07/14 03:43:54;;;;;;;519.47;450.45;;;;;;;;;;4930691;29;20472;-73
2021/07/14 03:46:20;;;;;;;515.38;443.75;;;;;;;;;;4930694;29;20476;-73
2021/07/14 03:48:48;;;;;;;520.05;443.45;;;;;;;;;;4932731;29;20365;-75
2021/07/14 03:51:16;;;;;;;518.88;446.58;;;;;;;;;;4950633;29;20027;-74
2021/07/14 03:53:42;;;;;;;516.45;441.35;;;;;;;;;;4932870;29;20539;-75
2021/07/14 03:56:08;;;;;;;519.33;449.50;;;;;;;;;;4952342;29;20066;-75
2021/07/14 03:58:35;;;;;;;521.53;452.30;;;;;;;;;;4936914;29;20024;-75
2021/07/14 04:01:01;;;;;;;518.60;443.90;;;;;;;;;;4935408;29;20030;-74
2021/07/14 04:03:29;;;;;;;521.60;451.23;;;;;;;;;;4937561;29;20027;-74
2021/07/14 04:05:59;;;;;;;517.83;443.13;;;;;;;;;;4953510;28;20027;-74
2021/07/14 04:08:29;;;;;;;519.80;448.50;;;;;;;;;;4936830;29;20037;-75
2021/07/14 04:10:55;;;;;;;518.25;445.58;;;;;;;;;;4935262;29;20034;-75
2021/07/14 04:13:21;;;;;;;522.33;453.98;;;;;;;;;;4947865;29;20676;-74
2021/07/14 04:15:47;;;;;;;519.40;446.40;;;;;;;;;;4951934;29;20035;-74
2021/07/14 04:18:13;;;;;;;516.58;439.45;;;;;;;;;;4950206;29;20027;-75
2021/07/14 04:20:40;;;;;;;519.17;449.88;;;;;;;;;;4935119;29;20027;-75
2021/07/14 04:23:06;;;;;;;517.13;441.80;;;;;;;;;;4935048;29;20027;-75
2021/07/14 04:25:32;;;;;;;519.13;448.83;;;;;;;;;;4932503;29;20511;-75
2021/07/14 04:27:58;;;;;;;519.63;449.23;;;;;;;;;;4952077;29;20027;-74
2021/07/14 04:30:24;;;;;;;519.47;447.13;;;;;;;;;;4952201;29;20031;-74
2021/07/14 04:32:50;;;;;;;518.78;447.60;;;;;;;;;;4950173;28;20522;-74
2021/07/14 04:35:16;;;;;;;519.70;450.80;;;;;;;;;;4928966;29;20038;-75
2021/07/14 04:37:43;;;;;;;518.42;446.40;;;;;;;;;;4951739;29;20110;-75
2021/07/14 04:40:10;;;;;;;514.10;433.35;;;;;;;;;;4929093;29;20082;-75
2021/07/14 04:42:36;;;;;;;520.92;454.42;;;;;;;;;;4933490;29;20122;-75
2021/07/14 04:45:02;;;;;;;516.10;437.92;;;;;;;;;;4934120;28;20119;-75
2021/07/14 04:47:29;;;;;;;516.63;441.70;;;;;;;;;;4951348;29;20032;-74
2021/07/14 04:49:55;;;;;;;520.80;454.48;;;;;;;;;;4939250;29;20033;-74
2021/07/14 04:52:21;;;;;;;519.47;452.08;;;;;;;;;;4932186;29;20480;-73
2021/07/14 04:54:47;;;;;;;522.95;453.58;;;;;;;;;;4937644;29;20498;-75
2021/07/14 04:57:13;;;;;;;516.92;443.83;;;;;;;;;;4951975;29;20350;-75
2021/07/14 05:00:01;;;;;;;517.60;446.02;;;;;;;;;;4952461;29;20031;-75
2021/07/14 05:02:27;;;;;;;516.70;440.88;;;;;;;;;;4937963;29;20031;-74
2021/07/14 05:04:53;;;;;;;520.58;451.95;;;;;;;;;;4951542;28;20046;-74
2021/07/14 05:07:18;;;;;;;518.30;448.95;;;;;;;;;;4938844;29;20042;-75
2021/07/14 05:10:16;;;;;;;519.88;447.90;;;;;;;;;;4948225;29;20037;-75
2021/07/14 05:12:42;;;;;;;519.65;449.85;;;;;;;;;;4936472;29;20047;-74
2021/07/14 05:15:08;;;;;;;595.13;470.17;;;;;;;;;;4947794;29;20114;-75
2021/07/14 05:17:34;;;;;;;518.78;449.33;;;;;;;;;;4940833;29;20029;-74
2021/07/14 05:20:00;;;;;;;641.50;509.48;;;;;;;;;;4939322;29;20082;-75
2021/07/14 05:22:32;;;;;;;519.80;451.83;;;;;;;;;;4955902;29;20035;-73
2021/07/14 05:24:58;;;;;;;525.38;445.25;;;;;;;;;;4952288;29;20122;-74
2021/07/14 05:27:24;;;;;;;1999.90;999.90;;;;;;;;;;4951722;29;20031;-75
2021/07/14 05:29:50;;;;;;;1999.90;999.90;;;;;;;;;;4955862;29;20034;-74
2021/07/14 05:32:17;;;;;;;1999.90;999.90;;;;;;;;;;4937119;29;20027;-74
2021/07/14 05:34:43;;;;;;;1999.90;999.90;;;;;;;;;;4923689;29;20035;-73
2021/07/14 05:37:09;;;;;;;577.20;516.63;;;;;;;;;;4947000;29;20031;-74
2021/07/14 05:39:35;;;;;;;1999.90;999.90;;;;;;;;;;4956535;29;20383;-74
2021/07/14 05:42:01;;;;;;;1999.90;999.90;;;;;;;;;;4950566;29;20039;-75
2021/07/14 05:44:27;;;;;;;1999.90;999.90;;;;;;;;;;4946682;29;20031;-74
2021/07/14 05:46:53;;;;;;;1999.90;999.90;;;;;;;;;;4937110;29;20475;-75
2021/07/14 05:49:19;;;;;;;1999.90;999.90;;;;;;;;;;4932777;29;20703;-74
2021/07/14 05:51:48;;;;;;;1999.90;999.90;;;;;;;;;;4948728;29;20027;-74
2021/07/14 05:54:15;;;;;;;1999.90;999.90;;;;;;;;;;4936480;29;20027;-76
2021/07/14 05:56:41;;;;;;;1999.90;999.90;;;;;;;;;;4938224;29;20042;-74
2021/07/14 05:59:07;;;;;;;1999.90;999.90;;;;;;;;;;4955662;29;20046;-74
2021/07/14 06:01:33;;;;;;;1999.90;999.90;;;;;;;;;;4932652;29;20083;-75
2021/07/14 06:04:01;;;;;;;1999.90;999.90;;;;;;;;;;4933438;29;20027;-74
2021/07/14 06:06:27;;;;;;;1999.90;999.90;;;;;;;;;;4925086;29;20051;-74
2021/07/14 06:08:53;;;;;;;1999.90;999.90;;;;;;;;;;4925775;29;20027;-75
2021/07/14 06:11:19;;;;;;;1999.90;999.90;;;;;;;;;;4953332;29;20028;-74
2021/07/14 06:13:45;;;;;;;1999.90;999.90;;;;;;;;;;4937517;29;20047;-75
2021/07/14 06:16:29;;;;;;;1999.90;999.90;;;;;;;;;;4948391;29;20027;-74
2021/07/14 06:18:55;;;;;;;1999.90;999.90;;;;;;;;;;4934546;29;20024;-76
2021/07/14 06:21:23;;;;;;;1999.90;999.90;;;;;;;;;;4945263;29;20333;-79
2021/07/14 06:23:49;;;;;;;1999.90;999.90;;;;;;;;;;4949808;28;20216;-73
2021/07/14 06:26:15;;;;;;;1999.90;999.90;;;;;;;;;;4949083;29;20034;-75
2021/07/14 06:28:47;;;;;;;1999.90;999.90;;;;;;;;;;4937779;29;20027;-74
2021/07/14 06:31:13;;;;;;;577.50;493.10;;;;;;;;;;4954331;28;20065;-74
2021/07/14 06:33:40;;;;;;;591.95;529.10;;;;;;;;;;4930126;29;20028;-74
2021/07/14 06:36:07;;;;;;;595.35;532.55;;;;;;;;;;4937323;29;20027;-73
2021/07/14 06:38:33;;;;;;;574.75;513.70;;;;;;;;;;4930236;29;20031;-74
2021/07/14 06:40:59;;;;;;;545.70;486.42;;;;;;;;;;4926301;29;20040;-74
2021/07/14 06:44:01;;;;;;;521.75;456.60;;;;;;;;;;4931761;29;20058;-75
2021/07/14 06:46:20;;;;;;;1078.28;670.42;;;;;;;;;;4939848;28;20034;-75
2021/07/14 06:48:46;;;;;;;1999.90;999.90;;;;;;;;;;4942833;28;20039;-75
2021/07/14 06:51:12;;;;;;;1999.90;999.90;;;;;;;;;;4940201;28;20391;-75
2021/07/14 06:53:39;;;;;;;1696.25;878.45;;;;;;;;;;4941315;28;20027;-75
2021/07/14 06:56:05;;;;;;;1999.90;999.90;;;;;;;;;;4930612;28;20027;-74
2021/07/14 06:58:32;;;;;;;525.30;461.67;;;;;;;;;;4934852;28;20464;-75
2021/07/14 07:00:58;;;;;;;517.70;458.48;;;;;;;;;;4924305;29;20023;-75
2021/07/14 07:03:24;;;;;;;562.67;502.45;;;;;;;;;;4943305;28;20161;-74
2021/07/14 07:05:50;;;;;;;1999.90;999.90;;;;;;;;;;4945265;28;20035;-75
2021/07/14 07:08:16;;;;;;;1999.90;999.90;;;;;;;;;;4931206;29;20058;-74
2021/07/14 07:10:44;;;;;;;1999.90;999.90;;;;;;;;;;4943412;28;20035;-75
2021/07/14 07:13:10;;;;;;;1999.90;999.90;;;;;;;;;;4943927;29;20547;-75
2021/07/14 07:15:36;;;;;;;518.75;452.23;;;;;;;;;;4929382;29;20392;-75
2021/07/14 07:18:02;;;;;;;520.90;453.25;;;;;;;;;;4930411;29;20030;-75
2021/07/14 07:20:29;;;;;;;550.05;455.92;;;;;;;;;;4938863;29;20027;-75
2021/07/14 07:22:55;;;;;;;1999.90;999.90;;;;;;;;;;4946065;29;20027;-75
2021/07/14 07:25:21;;;;;;;521.88;455.60;;;;;;;;;;4932833;29;20043;-75
2021/07/14 07:27:47;;;;;;;515.45;449.02;;;;;;;;;;4944800;28;20098;-74
2021/07/14 07:30:13;;;;;;;519.00;459.20;;;;;;;;;;4946500;28;20038;-75
2021/07/14 07:32:39;;;;;;;515.78;450.25;;;;;;;;;;4933185;29;20031;-77
2021/07/14 07:35:06;;;;;;;519.08;459.55;;;;;;;;;;4930294;29;20062;-77
2021/07/14 07:37:32;;;;;;;515.45;445.15;;;;;;;;;;4937066;28;20514;-74
2021/07/14 07:39:58;;;;;;;514.50;451.40;;;;;;;;;;4932046;29;20441;-75
2021/07/14 07:42:25;;;;;;;513.38;442.30;;;;;;;;;;4926368;28;20115;-75
2021/07/14 07:44:51;;;;;;;516.42;454.02;;;;;;;;;;4948712;28;20031;-75
2021/07/14 07:47:17;;;;;;;516.25;449.38;;;;;;;;;;4946598;28;20035;-74
2021/07/14 07:49:45;;;;;;;517.22;453.27;;;;;;;;;;4928741;28;20035;-76
2021/07/14 07:52:13;;;;;;;518.25;453.80;;;;;;;;;;4929749;28;20053;-74
2021/07/14 07:54:39;;;;;;;517.95;450.08;;;;;;;;;;4932574;29;20112;-74
2021/07/14 07:57:06;;;;;;;519.85;458.17;;;;;;;;;;4936144;29;20053;-74
2021/07/14 07:59:32;;;;;;;516.28;452.33;;;;;;;;;;4950246;28;20059;-74
2021/07/14 08:01:58;;;;;;;515.53;446.77;;;;;;;;;;4929835;29;20042;-74
2021/07/14 08:04:24;;;;;;;518.30;456.17;;;;;;;;;;4926798;29;20028;-74
2021/07/14 08:06:50;;;;;;;514.17;445.52;;;;;;;;;;4942737;28;20403;-74
2021/07/14 08:09:16;;;;;;;517.92;457.35;;;;;;;;;;4931820;29;20031;-74
2021/07/14 08:11:42;;;;;;;516.17;453.95;;;;;;;;;;4949203;29;20062;-75
2021/07/14 08:14:08;;;;;;;516.70;455.75;;;;;;;;;;4926845;29;20047;-75
2021/07/14 08:16:34;;;;;;;516.25;455.48;;;;;;;;;;4929516;29;20107;-75
2021/07/14 08:18:59;;;;;;;517.85;454.23;;;;;;;;;;4931779;29;20533;-75
2021/07/14 08:21:26;;;;;;;517.95;457.50;;;;;;;;;;4926959;29;20539;-75
2021/07/14 08:23:52;;;;;;;525.55;467.73;;;;;;;;;;4947372;28;20111;-75
2021/07/14 08:26:18;;;;;;;519.22;456.38;;;;;;;;;;4945368;28;20020;-75
2021/07/14 08:28:44;;;;;;;518.45;456.92;;;;;;;;;;4945577;28;20039;-75
2021/07/14 08:31:10;;;;;;;519.83;462.25;;;;;;;;;;4939564;28;20025;-74
2021/07/14 08:33:38;;;;;;;516.63;451.80;;;;;;;;;;4947568;28;20058;-75
2021/07/14 08:36:04;;;;;;;522.72;460.52;;;;;;;;;;4930734;29;20376;-75
2021/07/14 08:38:30;;;;;;;517.60;452.42;;;;;;;;;;4922138;29;20063;-75
2021/07/14 08:40:57;;;;;;;527.05;469.17;;;;;;;;;;4949909;29;20046;-75
2021/07/14 08:43:27;;;;;;;519.72;460.45;;;;;;;;;;4948915;29;20038;-74
2021/07/14 08:45:54;;;;;;;520.65;461.40;;;;;;;;;;4931760;29;20126;-75
2021/07/14 08:48:20;;;;;;;520.83;462.00;;;;;;;;;;4932649;29;20395;-73
2021/07/14 08:51:01;;;;;;;518.22;457.83;;;;;;;;;;4951091;29;20116;-80
2021/07/14 08:53:30;;;;;;;520.08;459.67;;;;;;;;;;4947548;28;20047;-74
2021/07/14 08:56:02;;;;;;;519.90;460.08;;;;;;;;;;4941743;28;20071;-75
2021/07/14 08:58:29;;;;;;;523.08;461.67;;;;;;;;;;4951025;29;20487;-74
2021/07/14 09:00:57;;;;;;;516.40;454.13;;;;;;;;;;4933795;29;20394;-74
2021/07/14 09:03:24;;;;;;;517.42;454.88;;;;;;;;;;4923471;29;20035;-74
2021/07/14 09:05:50;;;;;;;525.75;467.45;;;;;;;;;;4945252;28;20027;-76
2021/07/14 09:08:22;;;;;;;562.92;502.27;;;;;;;;;;4943228;28;20046;-78
2021/07/14 09:10:48;;;;;;;538.10;477.48;;;;;;;;;;4949017;28;20427;-74
2021/07/14 09:13:15;;;;;;;518.30;456.33;;;;;;;;;;4935398;29;20043;-72
2021/07/14 09:15:45;;;;;;;548.55;475.48;;;;;;;;;;4934770;29;20146;-74
2021/07/14 09:18:15;;;;;;;514.45;444.77;;;;;;;;;;4936372;28;20563;-73
2021/07/14 09:20:42;;;;;;;517.80;457.77;;;;;;;;;;4947949;29;20027;-72
2021/07/14 09:23:13;;;;;;;520.72;462.95;;;;;;;;;;4951691;29;20554;-74
2021/07/14 09:25:40;;;;;;;517.72;456.73;;;;;;;;;;4950757;29;20460;-74
2021/07/14 09:28:07;;;;;;;519.38;460.48;;;;;;;;;;4946412;28;20058;-75
2021/07/14 09:30:34;;;;;;;521.45;463.83;;;;;;;;;;4949604;28;20039;-75
2021/07/14 09:33:01;;;;;;;525.22;467.42;;;;;;;;;;4953214;29;20487;-73
2021/07/14 09:35:29;;;;;;;518.80;461.42;;;;;;;;;;4960460;28;20376;-74
2021/07/14 09:37:56;;;;;;;519.28;460.60;;;;;;;;;;4950275;28;20541;-74
2021/07/14 09:40:22;;;;;;;522.25;462.70;;;;;;;;;;4933241;29;20078;-74
2021/07/14 09:43:02;;;;;;;516.45;454.45;;;;;;;;;;4941011;29;20027;-75
2021/07/14 09:45:45;;;;;;;518.58;458.80;;;;;;;;;;4949298;29;20492;-74
2021/07/14 09:48:13;;;;;;;519.28;458.67;;;;;;;;;;4937424;29;20035;-74
2021/07/14 09:50:48;;;;;;;519.10;454.70;;;;;;;;;;4935807;29;20035;-74
2021/07/14 09:53:19;;;;;;;518.75;453.40;;;;;;;;;;4947176;29;20039;-74
2021/07/14 09:55:52;;;;;;;520.75;462.65;;;;;;;;;;4931769;29;20067;-74
2021/07/14 09:58:25;;;;;;;515.90;450.55;;;;;;;;;;4943576;28;20054;-75
2021/07/14 10:00:59;;;;;;;516.22;453.85;;;;;;;;;;4949449;28;20106;-74
2021/07/14 10:03:37;;;;;;;519.13;460.27;;;;;;;;;;4960656;28;20023;-73
2021/07/14 10:06:11;;;;;;;516.15;454.20;;;;;;;;;;4936819;29;20074;-79
2021/07/14 10:08:42;;;;;;;521.72;459.30;;;;;;;;;;4942282;29;20399;-74
2021/07/14 10:11:07;;;;;;;;;;;;;;;;;;4925581;29;20519;-74
2021/07/14 10:13:33;;;;;;;515.35;445.02;;;;;;;;;;4950876;28;19925;-74
2021/07/14 10:16:04;;;;;;;517.97;454.88;;;;;;;;;;4945813;29;20027;-75
2021/07/14 10:18:32;;;;;;;;;;;;;;;;;;4948187;29;20054;-76
2021/07/14 10:20:58;;;;;;;512.35;434.65;;;;;;;;;;4943371;28;19922;-75
2021/07/14 10:23:24;;;;;;;560.20;455.80;;;;;;;;;;4949821;29;20584;-74
2021/07/14 10:25:50;;;;;;;519.17;447.13;;;;;;;;;;4933283;29;20039;-75
2021/07/14 10:28:19;;;;;;;515.17;447.20;;;;;;;;;;4927358;29;20057;-74
2021/07/14 10:30:47;;;;;;;1476.82;809.10;;;;;;;;;;4939107;28;20106;-76
2021/07/14 10:33:16;;;;;;;516.00;452.42;;;;;;;;;;4942095;28;20039;-75
2021/07/14 10:35:43;;;;;;;734.33;480.30;;;;;;;;;;4927629;29;20027;-75
2021/07/14 10:38:28;;;;;;;520.50;453.60;;;;;;;;;;4931626;29;20496;-74
2021/07/14 10:40:55;;;;;;;514.03;446.00;;;;;;;;;;4947958;28;20212;-74
2021/07/14 10:43:23;;;;;;;515.33;450.35;;;;;;;;;;4949339;28;20135;-75
2021/07/14 10:45:50;;;;;;;516.72;454.58;;;;;;;;;;4940451;28;20078;-75
2021/07/14 10:48:17;;;;;;;516.33;449.42;;;;;;;;;;4933264;29;20047;-74
2021/07/14 10:50:43;;;;;;;514.85;452.27;;;;;;;;;;4937638;29;20113;-77
2021/07/14 10:53:13;;;;;;;514.97;453.27;;;;;;;;;;4933244;28;20031;-73
2021/07/14 10:55:39;;;;;;;515.38;452.80;;;;;;;;;;4942214;29;20027;-76
2021/07/14 10:58:06;;;;;;;514.83;452.48;;;;;;;;;;4936514;29;20568;-74
2021/07/14 11:00:39;;;;;;;519.33;461.60;;;;;;;;;;4933835;29;20031;-74
2021/07/14 11:03:05;;;;;;;516.53;457.20;;;;;;;;;;4932354;29;20028;-79
2021/07/14 11:05:32;;;;;;;517.20;457.80;;;;;;;;;;4948556;28;20245;-73
2021/07/14 11:07:58;;;;;;;1417.75;784.42;;;;;;;;;;4937531;29;20028;-75
2021/07/14 11:10:35;;;;;;;516.33;457.08;;;;;;;;;;4937576;28;20085;-80
2021/07/14 11:13:22;;;;;;;519.28;459.58;;;;;;;;;;4950407;28;20047;-74
2021/07/14 11:15:49;;;;;;;518.00;455.63;;;;;;;;;;4946638;28;20031;-75
2021/07/14 11:18:30;;;;;;;518.78;455.33;;;;;;;;;;4935515;28;20067;-74
2021/07/14 11:20:57;;;;;;;515.90;452.60;;;;;;;;;;4947722;28;20023;-73
2021/07/14 11:23:27;;;;;;;519.80;462.13;;;;;;;;;;4945665;28;20027;-74
2021/07/14 11:25:59;;;;;;;;;;;;;;;;;;4954960;28;20078;-73
2021/07/14 11:28:26;;;;;;;514.50;444.80;;;;;;;;;;4947368;28;19965;-74
2021/07/14 11:30:57;;;;;;;516.28;455.75;;;;;;;;;;4930461;29;20027;-75
2021/07/14 11:33:23;;;;;;;523.17;465.55;;;;;;;;;;4952774;28;20031;-76
2021/07/14 11:35:56;;;;;;;517.58;458.15;;;;;;;;;;4934255;29;20036;-73
2021/07/14 11:38:25;;;;;;;521.38;463.90;;;;;;;;;;4953246;28;20024;-74
2021/07/14 11:40:55;;;;;;;522.95;465.33;;;;;;;;;;4936787;28;20077;-77
2021/07/14 11:43:23;;;;;;;522.90;465.33;;;;;;;;;;4952707;29;20387;-75
2021/07/14 11:45:50;;;;;;;521.15;463.73;;;;;;;;;;4946925;29;20383;-74
2021/07/14 11:48:26;;;;;;;517.25;459.58;;;;;;;;;;4947332;29;20420;-73
2021/07/14 11:50:57;;;;;;;521.47;463.65;;;;;;;;;;4951942;29;20038;-77
2021/07/14 11:53:26;;;;;;;527.15;460.02;;;;;;;;;;4936822;29;20089;-75
2021/07/14 11:56:04;;;;;;;520.88;460.45;;;;;;;;;;4954464;29;20015;-73
2021/07/14 11:58:52;;;;;;;529.42;460.90;;;;;;;;;;4931101;29;20044;-74
2021/07/14 12:01:20;;;;;;;518.10;458.50;;;;;;;;;;4936038;29;20063;-74
2021/07/14 12:04:01;;;;;;;520.05;462.65;;;;;;;;;;4954444;28;20027;-81
2021/07/14 12:06:38;;;;;;;515.90;457.55;;;;;;;;;;4943492;28;20101;-74
2021/07/14 12:09:13;;;;;;;524.50;466.80;;;;;;;;;;4935929;28;20027;-73
2021/07/14 12:11:56;;;;;;;520.95;463.42;;;;;;;;;;4928056;28;20629;-72
2021/07/14 12:14:38;;;;;;;519.45;462.08;;;;;;;;;;4943341;28;20132;-74
2021/07/14 12:17:08;;;;;;;517.38;459.48;;;;;;;;;;4927074;28;20019;-76
2021/07/14 12:19:37;;;;;;;523.40;465.70;;;;;;;;;;4946766;28;20336;-75
2021/07/14 12:22:05;;;;;;;516.03;457.73;;;;;;;;;;4945612;28;20031;-74
2021/07/14 12:24:34;;;;;;;515.13;456.30;;;;;;;;;;4933268;29;20031;-78
2021/07/14 12:27:01;;;;;;;516.60;458.15;;;;;;;;;;4947615;29;20094;-76
2021/07/14 12:29:28;;;;;;;521.17;463.77;;;;;;;;;;4931283;28;20031;-73
2021/07/14 12:31:54;;;;;;;528.53;470.95;;;;;;;;;;4926468;29;20480;-73
2021/07/14 12:34:23;;;;;;;529.28;471.58;;;;;;;;;;4930059;29;20059;-74
2021/07/14 12:36:50;;;;;;;524.13;466.48;;;;;;;;;;4943534;28;20029;-74
2021/07/14 12:39:21;;;;;;;531.47;473.70;;;;;;;;;;4948428;28;20039;-74
2021/07/14 12:41:49;;;;;;;526.63;469.05;;;;;;;;;;4949590;29;20123;-75
2021/07/14 12:44:17;;;;;;;528.20;470.60;;;;;;;;;;4951172;29;20031;-73
2021/07/14 12:46:43;;;;;;;545.65;469.23;;;;;;;;;;4932064;29;20031;-73
2021/07/14 12:49:09;;;;;;;523.97;466.33;;;;;;;;;;4952576;29;20019;-73
2021/07/14 12:51:35;;;;;;;526.53;468.67;;;;;;;;;;4933878;29;20023;-74
2021/07/14 12:54:01;;;;;;;531.08;473.38;;;;;;;;;;4948225;28;20454;-73
2021/07/14 12:56:28;;;;;;;531.15;473.60;;;;;;;;;;4935414;28;20032;-75
2021/07/14 12:59:01;;;;;;;539.33;481.40;;;;;;;;;;4929477;28;20142;-75
2021/07/14 13:01:27;;;;;;;525.70;468.17;;;;;;;;;;4927290;28;20090;-73
2021/07/14 13:03:53;;;;;;;532.03;474.40;;;;;;;;;;4932288;29;20110;-74
2021/07/14 13:06:19;;;;;;;524.83;467.45;;;;;;;;;;4936428;29;20035;-75
2021/07/14 13:08:48;;;;;;;532.80;474.95;;;;;;;;;;4952345;29;20034;-75
2021/07/14 13:11:15;;;;;;;530.95;473.38;;;;;;;;;;4931264;29;20035;-74
2021/07/14 13:13:41;;;;;;;525.53;468.02;;;;;;;;;;4952176;29;20058;-76
2021/07/14 13:16:07;;;;;;;531.95;474.20;;;;;;;;;;4932914;29;20027;-78
2021/07/14 13:18:38;;;;;;;517.40;460.08;;;;;;;;;;4935356;29;20103;-75
2021/07/14 13:21:04;;;;;;;525.00;467.58;;;;;;;;;;4951359;29;20024;-74
2021/07/14 13:23:34;;;;;;;533.90;476.20;;;;;;;;;;4952773;29;20067;-73
2021/07/14 13:26:00;;;;;;;533.45;475.65;;;;;;;;;;4952232;28;20035;-75
2021/07/14 13:28:30;;;;;;;532.83;475.17;;;;;;;;;;4934701;29;20047;-73
2021/07/14 13:30:57;;;;;;;534.50;476.77;;;;;;;;;;4952602;29;20042;-75
2021/07/14 13:33:24;;;;;;;523.83;466.50;;;;;;;;;;4934536;29;20395;-74
2021/07/14 13:35:50;;;;;;;537.15;478.63;;;;;;;;;;4950071;29;20074;-77
2021/07/14 13:38:35;;;;;;;537.00;479.33;;;;;;;;;;4935399;29;20447;-73
2021/07/14 13:41:11;;;;;;;532.42;474.88;;;;;;;;;;4944352;29;20027;-75
2021/07/14 13:43:43;;;;;;;523.92;466.40;;;;;;;;;;4950674;29;20070;-73
2021/07/14 13:46:09;;;;;;;532.97;475.25;;;;;;;;;;4932546;29;20027;-74
2021/07/14 13:48:36;;;;;;;536.80;478.85;;;;;;;;;;4934219;29;20099;-76
2021/07/14 13:51:03;;;;;;;535.05;477.20;;;;;;;;;;4934953;29;20066;-75
2021/07/14 13:53:30;;;;;;;526.05;468.20;;;;;;;;;;4934780;29;20031;-76
2021/07/14 13:56:06;;;;;;;532.33;474.30;;;;;;;;;;4951992;29;20510;-75
2021/07/14 13:58:32;;;;;;;525.55;467.98;;;;;;;;;;4952022;29;20060;-72
2021/07/14 14:01:01;;;;;;;527.78;470.33;;;;;;;;;;4934104;29;20031;-75
2021/07/14 14:03:28;;;;;;;533.45;475.33;;;;;;;;;;4931424;29;20028;-78
2021/07/14 14:06:06;;;;;;;537.05;479.20;;;;;;;;;;4934093;29;20094;-74